sensor_id;sensor_type;location;lat;lon;timestamp;P1;durP1;ratioP1;P2;durP2;ratioP2
2029;SDS011;1020;48.854;8.830;2022-08-07T00:02:02;3.77;;;2.13;;
2029;SDS011;1020;48.854;8.830;2022-08-07T00:04:28;1.90;;;1.80;;
2029;SDS011;1020;48.854;8.830;2022-08-07T00:06:55;2.60;;;1.70;;
2029;SDS011;1020;48.854;8.830;2022-08-07T00:09:22;2.37;;;2.17;;
2029;SDS011;1020;48.854;8.830;2022-08-07T00:11:49;3.20;;;3.00;;
2029;SDS011;1020;48.854;8.830;2022-08-07T00:14:17;4.00;;;3.70;;
2029;SDS011;1020;48.854;8.830;2022-08-07T00:16:44;2.27;;;2.17;;
2029;SDS011;1020;48.854;8.830;2022-08-07T00:19:10;2.10;;;2.00;;
2029;SDS011;1020;48.854;8.830;2022-08-07T00:21:37;2.00;;;1.80;;
2029;SDS011;1020;48.854;8.830;2022-08-07T00:24:04;3.50;;;3.20;;
2029;SDS011;1020;48.854;8.830;2022-08-07T00:26:31;4.57;;;3.80;;
2029;SDS011;1020;48.854;8.830;2022-08-07T00:28:58;4.53;;;3.50;;
2029;SDS011;1020;48.854;8.830;2022-08-07T00:31:26;4.10;;;3.60;;
2029;SDS011;1020;48.854;8.830;2022-08-07T00:33:52;2.07;;;1.87;;
2029;SDS011;1020;48.854;8.830;2022-08-07T00:36:19;2.90;;;2.70;;
2029;SDS011;1020;48.854;8.830;2022-08-07T00:38:46;2.20;;;2.00;;
2029;SDS011;1020;48.854;8.830;2022-08-07T00:41:13;2.10;;;2.00;;
2029;SDS011;1020;48.854;8.830;2022-08-07T00:43:39;2.30;;;2.10;;
2029;SDS011;1020;48.854;8.830;2022-08-07T00:46:06;1.90;;;1.80;;
2029;SDS011;1020;48.854;8.830;2022-08-07T00:48:34;2.90;;;2.40;;
2029;SDS011;1020;48.854;8.830;2022-08-07T00:51:01;4.40;;;2.87;;
2029;SDS011;1020;48.854;8.830;2022-08-07T00:53:28;1.70;;;1.60;;
2029;SDS011;1020;48.854;8.830;2022-08-07T00:55:54;1.67;;;1.57;;
2029;SDS011;1020;48.854;8.830;2022-08-07T00:58:21;1.67;;;1.57;;
2029;SDS011;1020;48.854;8.830;2022-08-07T01:00:48;1.93;;;1.80;;
2029;SDS011;1020;48.854;8.830;2022-08-07T01:03:16;1.73;;;1.47;;
2029;SDS011;1020;48.854;8.830;2022-08-07T01:05:45;1.20;;;1.10;;
2029;SDS011;1020;48.854;8.830;2022-08-07T01:08:12;1.33;;;1.23;;
2029;SDS011;1020;48.854;8.830;2022-08-07T01:10:39;1.90;;;1.17;;
2029;SDS011;1020;48.854;8.830;2022-08-07T01:13:07;2.50;;;1.90;;
2029;SDS011;1020;48.854;8.830;2022-08-07T01:15:34;1.60;;;1.50;;
2029;SDS011;1020;48.854;8.830;2022-08-07T01:18:02;2.30;;;1.63;;
2029;SDS011;1020;48.854;8.830;2022-08-07T01:20:30;2.17;;;2.07;;
2029;SDS011;1020;48.854;8.830;2022-08-07T01:23:01;2.10;;;2.00;;
2029;SDS011;1020;48.854;8.830;2022-08-07T01:25:29;2.00;;;1.80;;
2029;SDS011;1020;48.854;8.830;2022-08-07T01:27:57;2.57;;;2.37;;
2029;SDS011;1020;48.854;8.830;2022-08-07T01:30:23;2.30;;;2.20;;
2029;SDS011;1020;48.854;8.830;2022-08-07T01:32:52;2.33;;;2.13;;
2029;SDS011;1020;48.854;8.830;2022-08-07T01:35:19;2.53;;;2.37;;
2029;SDS011;1020;48.854;8.830;2022-08-07T01:37:46;2.90;;;2.60;;
2029;SDS011;1020;48.854;8.830;2022-08-07T01:40:14;3.30;;;3.00;;
2029;SDS011;1020;48.854;8.830;2022-08-07T01:42:45;2.37;;;2.00;;
2029;SDS011;1020;48.854;8.830;2022-08-07T01:45:12;3.47;;;2.37;;
2029;SDS011;1020;48.854;8.830;2022-08-07T01:47:39;4.57;;;2.40;;
2029;SDS011;1020;48.854;8.830;2022-08-07T01:50:06;2.30;;;2.10;;
2029;SDS011;1020;48.854;8.830;2022-08-07T01:52:33;1.97;;;1.87;;
2029;SDS011;1020;48.854;8.830;2022-08-07T01:55:03;2.37;;;2.20;;
2029;SDS011;1020;48.854;8.830;2022-08-07T01:57:35;1.77;;;1.67;;
2029;SDS011;1020;48.854;8.830;2022-08-07T02:00:07;2.60;;;2.40;;
2029;SDS011;1020;48.854;8.830;2022-08-07T02:02:37;2.70;;;2.40;;
2029;SDS011;1020;48.854;8.830;2022-08-07T02:05:09;2.70;;;1.90;;
2029;SDS011;1020;48.854;8.830;2022-08-07T02:07:40;1.97;;;1.87;;
2029;SDS011;1020;48.854;8.830;2022-08-07T02:10:11;1.73;;;1.63;;
2029;SDS011;1020;48.854;8.830;2022-08-07T02:12:41;4.00;;;2.30;;
2029;SDS011;1020;48.854;8.830;2022-08-07T02:15:10;1.93;;;1.83;;
2029;SDS011;1020;48.854;8.830;2022-08-07T02:17:38;2.20;;;2.00;;
2029;SDS011;1020;48.854;8.830;2022-08-07T02:20:07;1.60;;;1.50;;
2029;SDS011;1020;48.854;8.830;2022-08-07T02:22:36;1.80;;;1.60;;
2029;SDS011;1020;48.854;8.830;2022-08-07T02:25:05;1.53;;;1.43;;
2029;SDS011;1020;48.854;8.830;2022-08-07T02:27:33;2.20;;;1.40;;
2029;SDS011;1020;48.854;8.830;2022-08-07T02:30:04;1.97;;;1.40;;
2029;SDS011;1020;48.854;8.830;2022-08-07T02:32:32;1.07;;;1.07;;
2029;SDS011;1020;48.854;8.830;2022-08-07T02:35:02;1.30;;;1.00;;
2029;SDS011;1020;48.854;8.830;2022-08-07T02:37:30;1.53;;;1.43;;
2029;SDS011;1020;48.854;8.830;2022-08-07T02:39:58;1.30;;;1.20;;
2029;SDS011;1020;48.854;8.830;2022-08-07T02:42:27;0.87;;;0.87;;
2029;SDS011;1020;48.854;8.830;2022-08-07T02:44:55;0.87;;;0.80;;
2029;SDS011;1020;48.854;8.830;2022-08-07T02:47:24;1.47;;;1.20;;
2029;SDS011;1020;48.854;8.830;2022-08-07T02:49:51;1.73;;;1.00;;
2029;SDS011;1020;48.854;8.830;2022-08-07T02:52:19;1.20;;;1.10;;
2029;SDS011;1020;48.854;8.830;2022-08-07T02:54:50;0.70;;;0.70;;
2029;SDS011;1020;48.854;8.830;2022-08-07T02:57:18;4.43;;;1.20;;
2029;SDS011;1020;48.854;8.830;2022-08-07T02:59:46;0.87;;;0.87;;
2029;SDS011;1020;48.854;8.830;2022-08-07T03:02:15;1.77;;;1.00;;
2029;SDS011;1020;48.854;8.830;2022-08-07T03:04:44;1.83;;;1.27;;
2029;SDS011;1020;48.854;8.830;2022-08-07T03:07:12;1.13;;;1.03;;
2029;SDS011;1020;48.854;8.830;2022-08-07T03:09:40;2.07;;;1.20;;
2029;SDS011;1020;48.854;8.830;2022-08-07T03:12:08;1.57;;;1.17;;
2029;SDS011;1020;48.854;8.830;2022-08-07T03:14:36;1.00;;;1.00;;
2029;SDS011;1020;48.854;8.830;2022-08-07T03:17:04;1.23;;;0.90;;
2029;SDS011;1020;48.854;8.830;2022-08-07T03:19:32;1.10;;;0.90;;
2029;SDS011;1020;48.854;8.830;2022-08-07T03:22:01;1.10;;;1.00;;
2029;SDS011;1020;48.854;8.830;2022-08-07T03:24:29;1.10;;;1.10;;
2029;SDS011;1020;48.854;8.830;2022-08-07T03:26:59;1.10;;;1.00;;
2029;SDS011;1020;48.854;8.830;2022-08-07T03:29:28;0.90;;;0.90;;
2029;SDS011;1020;48.854;8.830;2022-08-07T03:31:59;1.27;;;0.80;;
2029;SDS011;1020;48.854;8.830;2022-08-07T03:34:29;3.30;;;1.30;;
2029;SDS011;1020;48.854;8.830;2022-08-07T03:36:58;1.90;;;1.00;;
2029;SDS011;1020;48.854;8.830;2022-08-07T03:39:28;1.47;;;1.37;;
2029;SDS011;1020;48.854;8.830;2022-08-07T03:41:56;1.00;;;1.00;;
2029;SDS011;1020;48.854;8.830;2022-08-07T03:44:23;1.10;;;1.10;;
2029;SDS011;1020;48.854;8.830;2022-08-07T03:46:50;2.93;;;0.90;;
2029;SDS011;1020;48.854;8.830;2022-08-07T03:49:17;1.30;;;1.20;;
2029;SDS011;1020;48.854;8.830;2022-08-07T03:51:44;0.80;;;0.80;;
2029;SDS011;1020;48.854;8.830;2022-08-07T03:54:12;2.20;;;1.10;;
2029;SDS011;1020;48.854;8.830;2022-08-07T03:56:41;1.30;;;1.20;;
2029;SDS011;1020;48.854;8.830;2022-08-07T03:59:08;1.40;;;1.30;;
2029;SDS011;1020;48.854;8.830;2022-08-07T04:01:38;0.90;;;0.90;;
2029;SDS011;1020;48.854;8.830;2022-08-07T04:04:06;1.33;;;0.97;;
2029;SDS011;1020;48.854;8.830;2022-08-07T04:06:35;1.20;;;0.97;;
2029;SDS011;1020;48.854;8.830;2022-08-07T04:09:04;1.00;;;1.00;;
2029;SDS011;1020;48.854;8.830;2022-08-07T04:11:32;1.47;;;1.37;;
2029;SDS011;1020;48.854;8.830;2022-08-07T04:14:01;1.00;;;0.90;;
2029;SDS011;1020;48.854;8.830;2022-08-07T04:16:28;1.07;;;1.07;;
2029;SDS011;1020;48.854;8.830;2022-08-07T04:18:56;1.20;;;1.20;;
2029;SDS011;1020;48.854;8.830;2022-08-07T04:21:23;1.20;;;1.10;;
2029;SDS011;1020;48.854;8.830;2022-08-07T04:23:50;1.67;;;1.00;;
2029;SDS011;1020;48.854;8.830;2022-08-07T04:26:17;1.07;;;1.07;;
2029;SDS011;1020;48.854;8.830;2022-08-07T04:28:44;2.43;;;1.20;;
2029;SDS011;1020;48.854;8.830;2022-08-07T04:31:12;1.03;;;1.00;;
2029;SDS011;1020;48.854;8.830;2022-08-07T04:33:39;1.00;;;1.00;;
2029;SDS011;1020;48.854;8.830;2022-08-07T04:36:06;1.60;;;1.10;;
2029;SDS011;1020;48.854;8.830;2022-08-07T04:38:34;1.13;;;1.13;;
2029;SDS011;1020;48.854;8.830;2022-08-07T04:41:02;1.30;;;1.17;;
2029;SDS011;1020;48.854;8.830;2022-08-07T04:43:29;1.37;;;1.27;;
2029;SDS011;1020;48.854;8.830;2022-08-07T04:46:00;1.30;;;1.20;;
2029;SDS011;1020;48.854;8.830;2022-08-07T04:48:38;0.97;;;0.97;;
2029;SDS011;1020;48.854;8.830;2022-08-07T04:51:12;1.60;;;0.90;;
2029;SDS011;1020;48.854;8.830;2022-08-07T04:53:45;1.27;;;1.17;;
2029;SDS011;1020;48.854;8.830;2022-08-07T04:56:17;1.67;;;1.30;;
2029;SDS011;1020;48.854;8.830;2022-08-07T04:58:48;1.40;;;1.30;;
2029;SDS011;1020;48.854;8.830;2022-08-07T05:01:23;1.80;;;1.40;;
2029;SDS011;1020;48.854;8.830;2022-08-07T05:04:01;1.10;;;1.10;;
2029;SDS011;1020;48.854;8.830;2022-08-07T05:06:35;4.47;;;1.20;;
2029;SDS011;1020;48.854;8.830;2022-08-07T05:09:08;1.00;;;1.00;;
2029;SDS011;1020;48.854;8.830;2022-08-07T05:11:42;1.03;;;1.03;;
2029;SDS011;1020;48.854;8.830;2022-08-07T05:14:12;1.10;;;1.10;;
2029;SDS011;1020;48.854;8.830;2022-08-07T05:16:44;1.20;;;1.10;;
2029;SDS011;1020;48.854;8.830;2022-08-07T05:19:15;1.83;;;1.13;;
2029;SDS011;1020;48.854;8.830;2022-08-07T05:21:46;3.00;;;1.17;;
2029;SDS011;1020;48.854;8.830;2022-08-07T05:24:15;1.40;;;1.30;;
2029;SDS011;1020;48.854;8.830;2022-08-07T05:26:45;1.40;;;1.30;;
2029;SDS011;1020;48.854;8.830;2022-08-07T05:29:15;1.53;;;1.43;;
2029;SDS011;1020;48.854;8.830;2022-08-07T05:31:45;1.30;;;1.13;;
2029;SDS011;1020;48.854;8.830;2022-08-07T05:34:14;1.93;;;1.70;;
2029;SDS011;1020;48.854;8.830;2022-08-07T05:36:43;1.30;;;1.20;;
2029;SDS011;1020;48.854;8.830;2022-08-07T05:39:12;1.30;;;1.07;;
2029;SDS011;1020;48.854;8.830;2022-08-07T05:41:40;1.20;;;1.20;;
2029;SDS011;1020;48.854;8.830;2022-08-07T05:44:08;1.40;;;1.30;;
2029;SDS011;1020;48.854;8.830;2022-08-07T05:46:37;2.27;;;1.30;;
2029;SDS011;1020;48.854;8.830;2022-08-07T05:49:06;1.53;;;1.40;;
2029;SDS011;1020;48.854;8.830;2022-08-07T05:51:35;1.37;;;1.17;;
2029;SDS011;1020;48.854;8.830;2022-08-07T05:54:03;1.37;;;1.27;;
2029;SDS011;1020;48.854;8.830;2022-08-07T05:56:30;1.17;;;1.17;;
2029;SDS011;1020;48.854;8.830;2022-08-07T05:59:00;1.00;;;1.00;;
2029;SDS011;1020;48.854;8.830;2022-08-07T06:01:28;1.70;;;1.60;;
2029;SDS011;1020;48.854;8.830;2022-08-07T06:03:55;1.63;;;1.53;;
2029;SDS011;1020;48.854;8.830;2022-08-07T06:06:23;1.40;;;1.23;;
2029;SDS011;1020;48.854;8.830;2022-08-07T06:08:52;1.63;;;1.30;;
2029;SDS011;1020;48.854;8.830;2022-08-07T06:11:19;1.60;;;1.50;;
2029;SDS011;1020;48.854;8.830;2022-08-07T06:13:46;2.03;;;1.80;;
2029;SDS011;1020;48.854;8.830;2022-08-07T06:16:13;1.67;;;1.57;;
2029;SDS011;1020;48.854;8.830;2022-08-07T06:18:41;2.00;;;1.90;;
2029;SDS011;1020;48.854;8.830;2022-08-07T06:21:09;2.00;;;1.90;;
2029;SDS011;1020;48.854;8.830;2022-08-07T06:23:36;2.23;;;2.13;;
2029;SDS011;1020;48.854;8.830;2022-08-07T06:26:05;2.90;;;2.70;;
2029;SDS011;1020;48.854;8.830;2022-08-07T06:28:46;2.90;;;2.70;;
2029;SDS011;1020;48.854;8.830;2022-08-07T06:31:14;3.43;;;3.13;;
2029;SDS011;1020;48.854;8.830;2022-08-07T06:33:40;2.80;;;2.60;;
2029;SDS011;1020;48.854;8.830;2022-08-07T06:36:08;2.73;;;2.57;;
2029;SDS011;1020;48.854;8.830;2022-08-07T06:38:35;3.17;;;2.90;;
2029;SDS011;1020;48.854;8.830;2022-08-07T06:41:03;2.90;;;2.60;;
2029;SDS011;1020;48.854;8.830;2022-08-07T06:43:35;3.70;;;3.40;;
2029;SDS011;1020;48.854;8.830;2022-08-07T06:46:03;4.00;;;3.70;;
2029;SDS011;1020;48.854;8.830;2022-08-07T06:48:30;3.60;;;3.40;;
2029;SDS011;1020;48.854;8.830;2022-08-07T06:50:58;3.40;;;3.20;;
2029;SDS011;1020;48.854;8.830;2022-08-07T06:53:28;3.50;;;3.30;;
2029;SDS011;1020;48.854;8.830;2022-08-07T06:55:56;4.00;;;3.33;;
2029;SDS011;1020;48.854;8.830;2022-08-07T06:58:25;3.77;;;3.33;;
2029;SDS011;1020;48.854;8.830;2022-08-07T07:00:52;2.77;;;2.57;;
2029;SDS011;1020;48.854;8.830;2022-08-07T07:03:20;3.00;;;2.80;;
2029;SDS011;1020;48.854;8.830;2022-08-07T07:05:46;2.57;;;2.47;;
2029;SDS011;1020;48.854;8.830;2022-08-07T07:08:13;3.30;;;3.00;;
2029;SDS011;1020;48.854;8.830;2022-08-07T07:10:40;2.90;;;2.70;;
2029;SDS011;1020;48.854;8.830;2022-08-07T07:13:08;2.63;;;2.50;;
2029;SDS011;1020;48.854;8.830;2022-08-07T07:15:41;2.67;;;2.57;;
2029;SDS011;1020;48.854;8.830;2022-08-07T07:18:13;2.23;;;2.13;;
2029;SDS011;1020;48.854;8.830;2022-08-07T07:20:45;3.00;;;2.80;;
2029;SDS011;1020;48.854;8.830;2022-08-07T07:23:16;2.70;;;2.50;;
2029;SDS011;1020;48.854;8.830;2022-08-07T07:25:43;2.77;;;2.47;;
2029;SDS011;1020;48.854;8.830;2022-08-07T07:28:14;2.60;;;2.40;;
2029;SDS011;1020;48.854;8.830;2022-08-07T07:30:47;2.33;;;2.23;;
2029;SDS011;1020;48.854;8.830;2022-08-07T07:33:18;2.20;;;1.83;;
2029;SDS011;1020;48.854;8.830;2022-08-07T07:35:47;2.17;;;1.93;;
2029;SDS011;1020;48.854;8.830;2022-08-07T07:38:17;2.10;;;2.00;;
2029;SDS011;1020;48.854;8.830;2022-08-07T07:40:45;1.90;;;1.80;;
2029;SDS011;1020;48.854;8.830;2022-08-07T07:43:14;1.80;;;1.70;;
2029;SDS011;1020;48.854;8.830;2022-08-07T07:45:43;3.20;;;2.40;;
2029;SDS011;1020;48.854;8.830;2022-08-07T07:48:15;2.07;;;1.97;;
2029;SDS011;1020;48.854;8.830;2022-08-07T07:50:46;2.83;;;1.83;;
2029;SDS011;1020;48.854;8.830;2022-08-07T07:53:15;2.20;;;2.10;;
2029;SDS011;1020;48.854;8.830;2022-08-07T07:55:45;2.37;;;2.23;;
2029;SDS011;1020;48.854;8.830;2022-08-07T07:58:12;1.80;;;1.70;;
2029;SDS011;1020;48.854;8.830;2022-08-07T08:00:40;3.33;;;1.80;;
2029;SDS011;1020;48.854;8.830;2022-08-07T08:03:10;2.00;;;1.90;;
2029;SDS011;1020;48.854;8.830;2022-08-07T08:05:42;2.03;;;1.93;;
2029;SDS011;1020;48.854;8.830;2022-08-07T08:08:09;2.40;;;2.20;;
2029;SDS011;1020;48.854;8.830;2022-08-07T08:10:37;1.77;;;1.67;;
2029;SDS011;1020;48.854;8.830;2022-08-07T08:13:05;2.20;;;2.00;;
2029;SDS011;1020;48.854;8.830;2022-08-07T08:15:35;4.60;;;1.90;;
2029;SDS011;1020;48.854;8.830;2022-08-07T08:18:04;2.00;;;1.90;;
2029;SDS011;1020;48.854;8.830;2022-08-07T08:20:35;1.50;;;1.50;;
2029;SDS011;1020;48.854;8.830;2022-08-07T08:23:05;2.07;;;1.97;;
2029;SDS011;1020;48.854;8.830;2022-08-07T08:25:50;1.93;;;1.83;;
2029;SDS011;1020;48.854;8.830;2022-08-07T08:28:37;2.20;;;2.00;;
2029;SDS011;1020;48.854;8.830;2022-08-07T08:31:08;1.60;;;1.50;;
2029;SDS011;1020;48.854;8.830;2022-08-07T08:33:36;1.73;;;1.63;;
2029;SDS011;1020;48.854;8.830;2022-08-07T08:36:06;1.93;;;1.83;;
2029;SDS011;1020;48.854;8.830;2022-08-07T08:38:38;2.10;;;2.00;;
2029;SDS011;1020;48.854;8.830;2022-08-07T08:41:10;1.90;;;1.80;;
2029;SDS011;1020;48.854;8.830;2022-08-07T08:43:44;1.77;;;1.67;;
2029;SDS011;1020;48.854;8.830;2022-08-07T08:46:30;1.57;;;1.50;;
2029;SDS011;1020;48.854;8.830;2022-08-07T08:49:06;1.83;;;1.73;;
2029;SDS011;1020;48.854;8.830;2022-08-07T08:51:44;1.73;;;1.63;;
2029;SDS011;1020;48.854;8.830;2022-08-07T08:54:21;1.83;;;1.50;;
2029;SDS011;1020;48.854;8.830;2022-08-07T08:56:53;1.50;;;1.43;;
2029;SDS011;1020;48.854;8.830;2022-08-07T08:59:26;1.70;;;1.60;;
2029;SDS011;1020;48.854;8.830;2022-08-07T09:02:04;2.63;;;2.10;;
2029;SDS011;1020;48.854;8.830;2022-08-07T09:04:40;2.20;;;1.60;;
2029;SDS011;1020;48.854;8.830;2022-08-07T09:07:13;1.60;;;1.47;;
2029;SDS011;1020;48.854;8.830;2022-08-07T09:09:50;1.57;;;1.47;;
2029;SDS011;1020;48.854;8.830;2022-08-07T09:12:26;1.90;;;1.30;;
2029;SDS011;1020;48.854;8.830;2022-08-07T09:15:14;1.17;;;1.10;;
2029;SDS011;1020;48.854;8.830;2022-08-07T09:17:56;8.83;;;2.70;;
2029;SDS011;1020;48.854;8.830;2022-08-07T09:20:36;1.27;;;1.27;;
2029;SDS011;1020;48.854;8.830;2022-08-07T09:23:12;2.00;;;1.87;;
2029;SDS011;1020;48.854;8.830;2022-08-07T09:25:54;2.43;;;1.60;;
2029;SDS011;1020;48.854;8.830;2022-08-07T09:28:33;1.63;;;1.53;;
2029;SDS011;1020;48.854;8.830;2022-08-07T09:31:05;1.67;;;1.57;;
2029;SDS011;1020;48.854;8.830;2022-08-07T09:33:43;1.43;;;1.37;;
2029;SDS011;1020;48.854;8.830;2022-08-07T09:36:22;3.90;;;1.97;;
2029;SDS011;1020;48.854;8.830;2022-08-07T09:38:57;1.90;;;1.73;;
2029;SDS011;1020;48.854;8.830;2022-08-07T09:41:33;1.97;;;1.87;;
2029;SDS011;1020;48.854;8.830;2022-08-07T09:44:06;1.63;;;1.60;;
2029;SDS011;1020;48.854;8.830;2022-08-07T09:46:50;1.33;;;1.23;;
2029;SDS011;1020;48.854;8.830;2022-08-07T09:49:33;5.30;;;1.47;;
2029;SDS011;1020;48.854;8.830;2022-08-07T09:52:15;1.37;;;1.03;;
2029;SDS011;1020;48.854;8.830;2022-08-07T09:54:54;1.20;;;1.10;;
2029;SDS011;1020;48.854;8.830;2022-08-07T10:00:42;1.07;;;0.90;;
2029;SDS011;1020;48.854;8.830;2022-08-07T10:06:30;1.20;;;0.73;;
2029;SDS011;1020;48.854;8.830;2022-08-07T10:09:38;0.70;;;0.70;;
2029;SDS011;1020;48.854;8.830;2022-08-07T10:12:21;0.97;;;;;
2029;SDS011;1020;48.854;8.830;2022-08-07T10:15:21;0.80;;;0.70;;
2029;SDS011;1020;48.854;8.830;2022-08-07T10:21:20;1.57;;;1.10;;
2029;SDS011;1020;48.854;8.830;2022-08-07T10:23:59;0.70;;;0.70;;
2029;SDS011;1020;48.854;8.830;2022-08-07T10:26:47;1.10;;;1.00;;
2029;SDS011;1020;48.854;8.830;2022-08-07T10:32:21;0.70;;;0.60;;
2029;SDS011;1020;48.854;8.830;2022-08-07T10:35:04;1.30;;;1.00;;
2029;SDS011;1020;48.854;8.830;2022-08-07T10:37:40;0.50;;;0.50;;
2029;SDS011;1020;48.854;8.830;2022-08-07T10:40:21;0.67;;;0.67;;
2029;SDS011;1020;48.854;8.830;2022-08-07T10:42:56;0.60;;;0.60;;
2029;SDS011;1020;48.854;8.830;2022-08-07T10:45:29;0.60;;;0.60;;
2029;SDS011;1020;48.854;8.830;2022-08-07T10:48:06;1.27;;;0.63;;
2029;SDS011;1020;48.854;8.830;2022-08-07T10:50:41;0.70;;;0.70;;
2029;SDS011;1020;48.854;8.830;2022-08-07T10:53:13;0.77;;;0.60;;
2029;SDS011;1020;48.854;8.830;2022-08-07T10:55:49;0.70;;;0.70;;
2029;SDS011;1020;48.854;8.830;2022-08-07T10:58:27;1.00;;;0.70;;
2029;SDS011;1020;48.854;8.830;2022-08-07T11:01:11;1.33;;;0.80;;
2029;SDS011;1020;48.854;8.830;2022-08-07T11:03:58;0.83;;;0.83;;
2029;SDS011;1020;48.854;8.830;2022-08-07T11:06:31;1.63;;;1.20;;
2029;SDS011;1020;48.854;8.830;2022-08-07T11:09:06;4.03;;;0.90;;
2029;SDS011;1020;48.854;8.830;2022-08-07T11:11:41;2.30;;;0.80;;
2029;SDS011;1020;48.854;8.830;2022-08-07T11:14:12;0.70;;;0.70;;
2029;SDS011;1020;48.854;8.830;2022-08-07T11:16:46;0.80;;;0.80;;
2029;SDS011;1020;48.854;8.830;2022-08-07T11:19:21;0.80;;;0.70;;
2029;SDS011;1020;48.854;8.830;2022-08-07T11:22:00;1.33;;;0.93;;
2029;SDS011;1020;48.854;8.830;2022-08-07T11:24:36;0.80;;;0.80;;
2029;SDS011;1020;48.854;8.830;2022-08-07T11:27:08;3.53;;;0.80;;
2029;SDS011;1020;48.854;8.830;2022-08-07T11:29:42;0.87;;;0.77;;
2029;SDS011;1020;48.854;8.830;2022-08-07T11:32:16;0.80;;;0.80;;
2029;SDS011;1020;48.854;8.830;2022-08-07T11:34:49;0.83;;;0.60;;
2029;SDS011;1020;48.854;8.830;2022-08-07T11:37:24;0.97;;;0.90;;
2029;SDS011;1020;48.854;8.830;2022-08-07T11:40:06;1.00;;;0.70;;
2029;SDS011;1020;48.854;8.830;2022-08-07T11:42:45;1.60;;;0.80;;
2029;SDS011;1020;48.854;8.830;2022-08-07T11:45:20;1.00;;;0.90;;
2029;SDS011;1020;48.854;8.830;2022-08-07T11:48:00;0.90;;;0.60;;
2029;SDS011;1020;48.854;8.830;2022-08-07T11:50:43;0.70;;;0.70;;
2029;SDS011;1020;48.854;8.830;2022-08-07T11:53:33;0.80;;;0.80;;
2029;SDS011;1020;48.854;8.830;2022-08-07T11:56:09;0.70;;;0.70;;
2029;SDS011;1020;48.854;8.830;2022-08-07T11:58:48;0.60;;;0.60;;
2029;SDS011;1020;48.854;8.830;2022-08-07T12:01:30;3.00;;;0.80;;
2029;SDS011;1020;48.854;8.830;2022-08-07T12:04:15;3.07;;;0.73;;
2029;SDS011;1020;48.854;8.830;2022-08-07T12:06:58;1.43;;;0.77;;
2029;SDS011;1020;48.854;8.830;2022-08-07T12:09:33;1.40;;;0.90;;
2029;SDS011;1020;48.854;8.830;2022-08-07T12:12:03;1.10;;;0.80;;
2029;SDS011;1020;48.854;8.830;2022-08-07T12:14:35;0.83;;;0.60;;
2029;SDS011;1020;48.854;8.830;2022-08-07T12:17:09;0.80;;;0.80;;
2029;SDS011;1020;48.854;8.830;2022-08-07T12:19:42;1.37;;;0.60;;
2029;SDS011;1020;48.854;8.830;2022-08-07T12:22:16;0.60;;;0.60;;
2029;SDS011;1020;48.854;8.830;2022-08-07T12:24:50;0.60;;;0.60;;
2029;SDS011;1020;48.854;8.830;2022-08-07T12:27:43;0.90;;;0.90;;
2029;SDS011;1020;48.854;8.830;2022-08-07T12:30:15;0.80;;;0.70;;
2029;SDS011;1020;48.854;8.830;2022-08-07T12:32:44;0.90;;;0.70;;
2029;SDS011;1020;48.854;8.830;2022-08-07T12:35:15;1.57;;;0.70;;
2029;SDS011;1020;48.854;8.830;2022-08-07T12:37:46;0.70;;;0.50;;
2029;SDS011;1020;48.854;8.830;2022-08-07T12:40:16;0.87;;;0.70;;
2029;SDS011;1020;48.854;8.830;2022-08-07T12:42:45;0.83;;;0.83;;
2029;SDS011;1020;48.854;8.830;2022-08-07T12:45:17;1.00;;;0.80;;
2029;SDS011;1020;48.854;8.830;2022-08-07T12:47:48;0.70;;;0.60;;
2029;SDS011;1020;48.854;8.830;2022-08-07T12:50:21;1.70;;;0.77;;
2029;SDS011;1020;48.854;8.830;2022-08-07T12:53:00;0.73;;;0.60;;
2029;SDS011;1020;48.854;8.830;2022-08-07T12:55:37;0.60;;;0.60;;
2029;SDS011;1020;48.854;8.830;2022-08-07T12:58:08;1.60;;;0.80;;
2029;SDS011;1020;48.854;8.830;2022-08-07T13:00:42;0.50;;;0.50;;
2029;SDS011;1020;48.854;8.830;2022-08-07T13:03:22;0.77;;;0.77;;
2029;SDS011;1020;48.854;8.830;2022-08-07T13:06:04;1.90;;;0.93;;
2029;SDS011;1020;48.854;8.830;2022-08-07T13:08:47;1.33;;;0.90;;
2029;SDS011;1020;48.854;8.830;2022-08-07T13:11:28;0.80;;;0.80;;
2029;SDS011;1020;48.854;8.830;2022-08-07T13:14:16;0.70;;;0.70;;
2029;SDS011;1020;48.854;8.830;2022-08-07T13:16:56;0.77;;;0.77;;
2029;SDS011;1020;48.854;8.830;2022-08-07T13:19:29;1.87;;;0.90;;
2029;SDS011;1020;48.854;8.830;2022-08-07T13:22:07;2.90;;;0.80;;
2029;SDS011;1020;48.854;8.830;2022-08-07T13:24:41;0.80;;;0.50;;
2029;SDS011;1020;48.854;8.830;2022-08-07T13:27:14;1.27;;;0.70;;
2029;SDS011;1020;48.854;8.830;2022-08-07T13:29:48;0.80;;;0.50;;
2029;SDS011;1020;48.854;8.830;2022-08-07T13:32:22;1.03;;;0.70;;
2029;SDS011;1020;48.854;8.830;2022-08-07T13:34:55;0.70;;;0.70;;
2029;SDS011;1020;48.854;8.830;2022-08-07T13:37:27;0.77;;;0.77;;
2029;SDS011;1020;48.854;8.830;2022-08-07T13:40:08;0.70;;;0.70;;
2029;SDS011;1020;48.854;8.830;2022-08-07T13:42:40;1.57;;;0.80;;
2029;SDS011;1020;48.854;8.830;2022-08-07T13:45:08;0.80;;;0.80;;
2029;SDS011;1020;48.854;8.830;2022-08-07T13:47:36;0.87;;;0.67;;
2029;SDS011;1020;48.854;8.830;2022-08-07T13:50:06;0.67;;;0.67;;
2029;SDS011;1020;48.854;8.830;2022-08-07T13:52:36;0.60;;;0.60;;
2029;SDS011;1020;48.854;8.830;2022-08-07T13:55:07;0.70;;;0.70;;
2029;SDS011;1020;48.854;8.830;2022-08-07T13:57:39;0.77;;;0.67;;
2029;SDS011;1020;48.854;8.830;2022-08-07T14:00:09;0.70;;;0.70;;
2029;SDS011;1020;48.854;8.830;2022-08-07T14:02:37;1.20;;;0.70;;
2029;SDS011;1020;48.854;8.830;2022-08-07T14:05:07;0.90;;;0.83;;
2029;SDS011;1020;48.854;8.830;2022-08-07T14:07:38;0.70;;;0.70;;
2029;SDS011;1020;48.854;8.830;2022-08-07T14:10:08;0.50;;;0.50;;
2029;SDS011;1020;48.854;8.830;2022-08-07T14:12:37;1.00;;;1.00;;
2029;SDS011;1020;48.854;8.830;2022-08-07T14:15:16;0.60;;;0.60;;
2029;SDS011;1020;48.854;8.830;2022-08-07T14:17:46;0.80;;;0.80;;
2029;SDS011;1020;48.854;8.830;2022-08-07T14:20:15;1.00;;;0.77;;
2029;SDS011;1020;48.854;8.830;2022-08-07T14:22:46;1.73;;;0.70;;
2029;SDS011;1020;48.854;8.830;2022-08-07T14:25:23;0.93;;;0.67;;
2029;SDS011;1020;48.854;8.830;2022-08-07T14:27:52;0.90;;;0.80;;
2029;SDS011;1020;48.854;8.830;2022-08-07T14:30:21;0.50;;;0.50;;
2029;SDS011;1020;48.854;8.830;2022-08-07T14:32:49;0.70;;;0.70;;
2029;SDS011;1020;48.854;8.830;2022-08-07T14:35:21;0.97;;;0.70;;
2029;SDS011;1020;48.854;8.830;2022-08-07T14:37:49;0.70;;;0.70;;
2029;SDS011;1020;48.854;8.830;2022-08-07T14:40:20;2.53;;;0.70;;
2029;SDS011;1020;48.854;8.830;2022-08-07T14:42:53;0.60;;;0.60;;
2029;SDS011;1020;48.854;8.830;2022-08-07T14:45:22;0.60;;;0.60;;
2029;SDS011;1020;48.854;8.830;2022-08-07T14:47:52;2.50;;;0.70;;
2029;SDS011;1020;48.854;8.830;2022-08-07T14:50:21;0.70;;;0.70;;
2029;SDS011;1020;48.854;8.830;2022-08-07T14:52:50;0.87;;;0.70;;
2029;SDS011;1020;48.854;8.830;2022-08-07T14:55:21;0.80;;;0.70;;
2029;SDS011;1020;48.854;8.830;2022-08-07T14:57:52;0.70;;;0.70;;
2029;SDS011;1020;48.854;8.830;2022-08-07T15:00:22;0.60;;;0.60;;
2029;SDS011;1020;48.854;8.830;2022-08-07T15:02:54;1.03;;;0.70;;
2029;SDS011;1020;48.854;8.830;2022-08-07T15:05:23;0.97;;;0.70;;
2029;SDS011;1020;48.854;8.830;2022-08-07T15:07:53;1.80;;;0.90;;
2029;SDS011;1020;48.854;8.830;2022-08-07T15:10:23;0.73;;;0.73;;
2029;SDS011;1020;48.854;8.830;2022-08-07T15:12:52;0.60;;;0.60;;
2029;SDS011;1020;48.854;8.830;2022-08-07T15:15:22;0.70;;;0.60;;
2029;SDS011;1020;48.854;8.830;2022-08-07T15:17:55;0.60;;;0.47;;
2029;SDS011;1020;48.854;8.830;2022-08-07T15:20:27;0.70;;;0.70;;
2029;SDS011;1020;48.854;8.830;2022-08-07T15:23:01;2.20;;;0.63;;
2029;SDS011;1020;48.854;8.830;2022-08-07T15:25:32;0.80;;;0.80;;
2029;SDS011;1020;48.854;8.830;2022-08-07T15:28:03;0.57;;;0.53;;
2029;SDS011;1020;48.854;8.830;2022-08-07T15:30:32;0.83;;;0.83;;
2029;SDS011;1020;48.854;8.830;2022-08-07T15:33:00;1.40;;;0.60;;
2029;SDS011;1020;48.854;8.830;2022-08-07T15:35:29;1.37;;;0.70;;
2029;SDS011;1020;48.854;8.830;2022-08-07T15:37:59;1.27;;;0.70;;
2029;SDS011;1020;48.854;8.830;2022-08-07T15:40:27;0.70;;;0.70;;
2029;SDS011;1020;48.854;8.830;2022-08-07T15:43:02;0.70;;;0.70;;
2029;SDS011;1020;48.854;8.830;2022-08-07T15:45:39;0.60;;;0.60;;
2029;SDS011;1020;48.854;8.830;2022-08-07T15:48:12;0.70;;;0.70;;
2029;SDS011;1020;48.854;8.830;2022-08-07T15:50:43;1.60;;;0.90;;
2029;SDS011;1020;48.854;8.830;2022-08-07T15:53:13;0.73;;;0.73;;
2029;SDS011;1020;48.854;8.830;2022-08-07T15:55:44;0.83;;;0.83;;